sensor_id;sensor_type;location;lat;lon;timestamp;pressure;altitude;pressure_sealevel;temperature;humidity
71970;BME280;59838;52.152;5.436;2023-04-01T00:02:02;99166.06;;;9.47;100.00
71970;BME280;59838;52.152;5.436;2023-04-01T00:04:29;99172.84;;;9.48;100.00
71970;BME280;59838;52.152;5.436;2023-04-01T00:06:55;99170.25;;;9.48;100.00
71970;BME280;59838;52.152;5.436;2023-04-01T00:09:22;99171.03;;;9.48;100.00
71970;BME280;59838;52.152;5.436;2023-04-01T00:11:49;99172.03;;;9.47;100.00
71970;BME280;59838;52.152;5.436;2023-04-01T00:14:16;99173.84;;;9.47;100.00
71970;BME280;59838;52.152;5.436;2023-04-01T00:16:43;99179.59;;;9.49;100.00
71970;BME280;59838;52.152;5.436;2023-04-01T00:19:09;99178.81;;;9.48;100.00
71970;BME280;59838;52.152;5.436;2023-04-01T00:21:35;99192.34;;;9.50;100.00
71970;BME280;59838;52.152;5.436;2023-04-01T00:24:03;99183.78;;;9.50;100.00
71970;BME280;59838;52.152;5.436;2023-04-01T00:26:29;99177.00;;;9.49;100.00
71970;BME280;59838;52.152;5.436;2023-04-01T00:28:56;99180.41;;;9.49;100.00
71970;BME280;59838;52.152;5.436;2023-04-01T00:31:22;99178.25;;;9.46;100.00
71970;BME280;59838;52.152;5.436;2023-04-01T00:33:51;99182.63;;;9.46;100.00
71970;BME280;59838;52.152;5.436;2023-04-01T00:36:20;99183.44;;;9.46;100.00
71970;BME280;59838;52.152;5.436;2023-04-01T00:38:48;99182.84;;;9.44;100.00
71970;BME280;59838;52.152;5.436;2023-04-01T00:41:16;99176.84;;;9.44;100.00
71970;BME280;59838;52.152;5.436;2023-04-01T00:43:45;99187.22;;;9.44;100.00
71970;BME280;59838;52.152;5.436;2023-04-01T00:46:12;99182.03;;;9.44;100.00
71970;BME280;59838;52.152;5.436;2023-04-01T00:48:42;99188.25;;;9.43;100.00
71970;BME280;59838;52.152;5.436;2023-04-01T00:51:15;99187.44;;;9.42;100.00
71970;BME280;59838;52.152;5.436;2023-04-01T00:53:45;99191.06;;;9.41;100.00
71970;BME280;59838;52.152;5.436;2023-04-01T00:56:19;99182.47;;;9.41;100.00
71970;BME280;59838;52.152;5.436;2023-04-01T00:58:50;99187.88;;;9.39;100.00
71970;BME280;59838;52.152;5.436;2023-04-01T01:01:20;99205.22;;;9.39;100.00
71970;BME280;59838;52.152;5.436;2023-04-01T01:03:48;99196.47;;;9.40;100.00
71970;BME280;59838;52.152;5.436;2023-04-01T01:06:26;99198.44;;;9.38;100.00
71970;BME280;59838;52.152;5.436;2023-04-01T01:09:23;99200.03;;;9.39;100.00
71970;BME280;59838;52.152;5.436;2023-04-01T01:12:14;99206.22;;;9.38;100.00
71970;BME280;59838;52.152;5.436;2023-04-01T01:14:59;99205.09;;;9.33;100.00
71970;BME280;59838;52.152;5.436;2023-04-01T01:17:39;99203.06;;;9.36;100.00
71970;BME280;59838;52.152;5.436;2023-04-01T01:20:53;99206.69;;;9.35;100.00
71970;BME280;59838;52.152;5.436;2023-04-01T01:35:20;99203.91;;;9.29;100.00
71970;BME280;59838;52.152;5.436;2023-04-01T01:37:50;99207.53;;;9.28;100.00
71970;BME280;59838;52.152;5.436;2023-04-01T01:40:19;99212.72;;;9.28;100.00
71970;BME280;59838;52.152;5.436;2023-04-01T01:42:50;99214.69;;;9.26;100.00
71970;BME280;59838;52.152;5.436;2023-04-01T01:45:20;99213.91;;;9.26;100.00
71970;BME280;59838;52.152;5.436;2023-04-01T01:47:48;99209.97;;;9.23;100.00
71970;BME280;59838;52.152;5.436;2023-04-01T01:50:17;99215.38;;;9.22;100.00
71970;BME280;59838;52.152;5.436;2023-04-01T01:52:44;99213.97;;;9.19;100.00
71970;BME280;59838;52.152;5.436;2023-04-01T01:55:46;99221.75;;;9.19;100.00
71970;BME280;59838;52.152;5.436;2023-04-01T01:58:15;99206.41;;;9.18;100.00
71970;BME280;59838;52.152;5.436;2023-04-01T02:00:46;99212.81;;;9.15;100.00
71970;BME280;59838;52.152;5.436;2023-04-01T02:03:15;99219.22;;;9.12;100.00
71970;BME280;59838;52.152;5.436;2023-04-01T02:05:44;99218.44;;;9.12;100.00
71970;BME280;59838;52.152;5.436;2023-04-01T02:08:14;99223.84;;;9.10;100.00
71970;BME280;59838;52.152;5.436;2023-04-01T02:10:56;99231.59;;;9.10;100.00
71970;BME280;59838;52.152;5.436;2023-04-01T02:13:52;99228.63;;;9.07;100.00
71970;BME280;59838;52.152;5.436;2023-04-01T02:16:41;99226.03;;;9.07;100.00
71970;BME280;59838;52.152;5.436;2023-04-01T02:19:12;99227.47;;;9.03;100.00
71970;BME280;59838;52.152;5.436;2023-04-01T02:21:40;99227.47;;;9.03;100.00
71970;BME280;59838;52.152;5.436;2023-04-01T02:24:12;99230.84;;;9.03;100.00
71970;BME280;59838;52.152;5.436;2023-04-01T02:26:40;99227.69;;;9.01;100.00
71970;BME280;59838;52.152;5.436;2023-04-01T02:29:08;99230.06;;;9.03;100.00
71970;BME280;59838;52.152;5.436;2023-04-01T02:31:35;99231.28;;;9.00;100.00
71970;BME280;59838;52.152;5.436;2023-04-01T02:34:03;99238.25;;;9.00;100.00
71970;BME280;59838;52.152;5.436;2023-04-01T02:36:30;99235.09;;;8.98;100.00
71970;BME280;59838;52.152;5.436;2023-04-01T02:38:58;99237.69;;;8.98;100.00
71970;BME280;59838;52.152;5.436;2023-04-01T02:41:28;99240.47;;;8.96;100.00
71970;BME280;59838;52.152;5.436;2023-04-01T02:43:55;99243.28;;;8.94;100.00
71970;BME280;59838;52.152;5.436;2023-04-01T02:46:24;99234.69;;;8.94;100.00
71970;BME280;59838;52.152;5.436;2023-04-01T02:48:50;99239.09;;;8.93;100.00
71970;BME280;59838;52.152;5.436;2023-04-01T02:51:17;99245.25;;;8.92;100.00
71970;BME280;59838;52.152;5.436;2023-04-01T02:53:43;99250.44;;;8.92;100.00
71970;BME280;59838;52.152;5.436;2023-04-01T02:56:11;99246.28;;;8.91;100.00
71970;BME280;59838;52.152;5.436;2023-04-01T02:58:37;99243.91;;;8.90;100.00
71970;BME280;59838;52.152;5.436;2023-04-01T03:01:04;99247.28;;;8.90;100.00
71970;BME280;59838;52.152;5.436;2023-04-01T03:03:30;99249.09;;;8.90;100.00
71970;BME280;59838;52.152;5.436;2023-04-01T03:05:57;99253.28;;;8.91;100.00
71970;BME280;59838;52.152;5.436;2023-04-01T03:08:24;99250.06;;;8.89;100.00
71970;BME280;59838;52.152;5.436;2023-04-01T03:10:51;99252.66;;;8.89;100.00
71970;BME280;59838;52.152;5.436;2023-04-01T03:13:17;99264.63;;;8.90;100.00
71970;BME280;59838;52.152;5.436;2023-04-01T03:15:44;99262.03;;;8.90;100.00
71970;BME280;59838;52.152;5.436;2023-04-01T03:18:10;99252.66;;;8.89;100.00
71970;BME280;59838;52.152;5.436;2023-04-01T03:20:37;99264.84;;;8.88;100.00
71970;BME280;59838;52.152;5.436;2023-04-01T03:23:04;99258.06;;;8.87;100.00
71970;BME280;59838;52.152;5.436;2023-04-01T03:25:31;99261.66;;;8.86;100.00
71970;BME280;59838;52.152;5.436;2023-04-01T03:27:58;99271.81;;;8.88;100.00
71970;BME280;59838;52.152;5.436;2023-04-01T03:30:26;99270.78;;;8.89;100.00
71970;BME280;59838;52.152;5.436;2023-04-01T03:32:52;99276.56;;;8.91;100.00
71970;BME280;59838;52.152;5.436;2023-04-01T03:35:19;99283.53;;;8.90;100.00
71970;BME280;59838;52.152;5.436;2023-04-01T03:37:45;99287.16;;;8.89;100.00
71970;BME280;59838;52.152;5.436;2023-04-01T03:40:12;99292.31;;;8.89;100.00
71970;BME280;59838;52.152;5.436;2023-04-01T03:42:39;99290.72;;;8.88;100.00
71970;BME280;59838;52.152;5.436;2023-04-01T03:45:06;99288.94;;;8.89;100.00
71970;BME280;59838;52.152;5.436;2023-04-01T03:47:32;99289.94;;;8.88;100.00
71970;BME280;59838;52.152;5.436;2023-04-01T03:49:59;99290.72;;;8.88;100.00
71970;BME280;59838;52.152;5.436;2023-04-01T03:52:26;99294.31;;;8.87;100.00
71970;BME280;59838;52.152;5.436;2023-04-01T03:54:52;99298.50;;;8.88;100.00
71970;BME280;59838;52.152;5.436;2023-04-01T03:57:19;99296.91;;;8.87;100.00
71970;BME280;59838;52.152;5.436;2023-04-01T03:59:45;99298.28;;;8.90;100.00
71970;BME280;59838;52.152;5.436;2023-04-01T04:02:12;99301.09;;;8.88;100.00
71970;BME280;59838;52.152;5.436;2023-04-01T04:04:38;99301.09;;;8.88;100.00
71970;BME280;59838;52.152;5.436;2023-04-01T04:07:05;99310.47;;;8.89;100.00
71970;BME280;59838;52.152;5.436;2023-04-01T04:09:31;99315.44;;;8.91;100.00
71970;BME280;59838;52.152;5.436;2023-04-01T04:11:58;99318.03;;;8.91;100.00
71970;BME280;59838;52.152;5.436;2023-04-01T04:14:25;99325.78;;;8.91;100.00
71970;BME280;59838;52.152;5.436;2023-04-01T04:16:51;99326.78;;;8.90;100.00
71970;BME280;59838;52.152;5.436;2023-04-01T04:19:18;99320.81;;;8.89;100.00
71970;BME280;59838;52.152;5.436;2023-04-01T04:21:44;99330.97;;;8.91;100.00
71970;BME280;59838;52.152;5.436;2023-04-01T04:24:11;99334.91;;;8.93;100.00
71970;BME280;59838;52.152;5.436;2023-04-01T04:26:37;99334.91;;;8.93;100.00
71970;BME280;59838;52.152;5.436;2023-04-01T04:29:04;99337.50;;;8.93;100.00
71970;BME280;59838;52.152;5.436;2023-04-01T04:31:30;99346.88;;;8.94;100.00
71970;BME280;59838;52.152;5.436;2023-04-01T04:33:59;99348.25;;;8.97;100.00
71970;BME280;59838;52.152;5.436;2023-04-01T04:36:26;99348.25;;;8.97;100.00
71970;BME280;59838;52.152;5.436;2023-04-01T04:38:53;99355.03;;;8.98;100.00
71970;BME280;59838;52.152;5.436;2023-04-01T04:41:20;99356.41;;;9.01;100.00
71970;BME280;59838;52.152;5.436;2023-04-01T04:43:52;99363.38;;;9.00;100.00
71970;BME280;59838;52.152;5.436;2023-04-01T04:46:19;99368.34;;;9.02;100.00
71970;BME280;59838;52.152;5.436;2023-04-01T04:48:45;99367.34;;;9.03;100.00
71970;BME280;59838;52.152;5.436;2023-04-01T04:51:14;99370.72;;;9.03;100.00
71970;BME280;59838;52.152;5.436;2023-04-01T04:53:41;99373.13;;;9.05;100.00
71970;BME280;59838;52.152;5.436;2023-04-01T04:56:08;99382.47;;;9.06;100.00
71970;BME280;59838;52.152;5.436;2023-04-01T04:58:35;99386.44;;;9.08;100.00
71970;BME280;59838;52.152;5.436;2023-04-01T05:01:06;99389.84;;;9.09;100.00
71970;BME280;59838;52.152;5.436;2023-04-01T05:03:33;99388.25;;;9.08;100.00
71970;BME280;59838;52.152;5.436;2023-04-01T05:05:59;99393.00;;;9.11;100.00
71970;BME280;59838;52.152;5.436;2023-04-01T05:08:26;99398.78;;;9.13;100.00
71970;BME280;59838;52.152;5.436;2023-04-01T05:10:52;99400.38;;;9.14;100.00
71970;BME280;59838;52.152;5.436;2023-04-01T05:13:18;99411.31;;;9.16;100.00
71970;BME280;59838;52.152;5.436;2023-04-01T05:15:45;99407.72;;;9.17;100.00
71970;BME280;59838;52.152;5.436;2023-04-01T05:18:11;99416.09;;;9.19;100.00
71970;BME280;59838;52.152;5.436;2023-04-01T05:20:38;99421.28;;;9.19;100.00
71970;BME280;59838;52.152;5.436;2023-04-01T05:23:04;99422.06;;;9.20;100.00
71970;BME280;59838;52.152;5.436;2023-04-01T05:25:31;99428.84;;;9.21;100.00
71970;BME280;59838;52.152;5.436;2023-04-01T05:27:58;99424.44;;;9.21;100.00
71970;BME280;59838;52.152;5.436;2023-04-01T05:30:24;99428.84;;;9.21;100.00
71970;BME280;59838;52.152;5.436;2023-04-01T05:32:50;99434.81;;;9.21;100.00
71970;BME280;59838;52.152;5.436;2023-04-01T05:35:17;99440.59;;;9.23;100.00
71970;BME280;59838;52.152;5.436;2023-04-01T05:37:43;99444.19;;;9.22;100.00
71970;BME280;59838;52.152;5.436;2023-04-01T05:40:10;99440.59;;;9.23;100.00
71970;BME280;59838;52.152;5.436;2023-04-01T05:42:37;99447.56;;;9.23;100.00
71970;BME280;59838;52.152;5.436;2023-04-01T05:45:04;99455.13;;;9.24;100.00
71970;BME280;59838;52.152;5.436;2023-04-01T05:47:30;99463.47;;;9.26;100.00
71970;BME280;59838;52.152;5.436;2023-04-01T05:49:57;99469.47;;;9.27;100.00
71970;BME280;59838;52.152;5.436;2023-04-01T05:52:23;99472.28;;;9.25;100.00
71970;BME280;59838;52.152;5.436;2023-04-01T05:54:50;99466.88;;;9.27;100.00
71970;BME280;59838;52.152;5.436;2023-04-01T05:57:17;99470.25;;;9.27;100.00
71970;BME280;59838;52.152;5.436;2023-04-01T05:59:43;99471.84;;;9.28;100.00
71970;BME280;59838;52.152;5.436;2023-04-01T06:02:10;99474.44;;;9.28;100.00
71970;BME280;59838;52.152;5.436;2023-04-01T06:04:38;99476.84;;;9.30;100.00
71970;BME280;59838;52.152;5.436;2023-04-01T06:07:11;99495.75;;;9.30;100.00
71970;BME280;59838;52.152;5.436;2023-04-01T06:09:38;99485.41;;;9.30;100.00
71970;BME280;59838;52.152;5.436;2023-04-01T06:12:40;99497.38;;;9.31;100.00
71970;BME280;59838;52.152;5.436;2023-04-01T06:15:23;99497.38;;;9.31;100.00
71970;BME280;59838;52.152;5.436;2023-04-01T06:18:14;99499.75;;;9.33;100.00
71970;BME280;59838;52.152;5.436;2023-04-01T06:26:25;99515.09;;;9.35;100.00
71970;BME280;59838;52.152;5.436;2023-04-01T06:43:47;99549.13;;;9.45;100.00
71970;BME280;59838;52.152;5.436;2023-04-01T06:49:11;99550.09;;;9.50;100.00
71970;BME280;59838;52.152;5.436;2023-04-01T06:52:31;99557.09;;;9.50;100.00
71970;BME280;59838;52.152;5.436;2023-04-01T06:54:35;99552.28;;;9.54;100.00
71970;BME280;59838;52.152;5.436;2023-04-01T06:57:23;99564.03;;;9.56;100.00
71970;BME280;59838;52.152;5.436;2023-04-01T06:59:57;99568.00;;;9.59;100.00
71970;BME280;59838;52.152;5.436;2023-04-01T07:02:33;99567.81;;;9.60;100.00
71970;BME280;59838;52.152;5.436;2023-04-01T07:05:04;99581.78;;;9.59;100.00
71970;BME280;59838;52.152;5.436;2023-04-01T07:07:44;99584.75;;;9.63;100.00
71970;BME280;59838;52.152;5.436;2023-04-01T07:10:22;99584.34;;;9.66;100.00
71970;BME280;59838;52.152;5.436;2023-04-01T07:12:54;99585.50;;;9.70;100.00
71970;BME280;59838;52.152;5.436;2023-04-01T07:15:26;99594.69;;;9.73;100.00
71970;BME280;59838;52.152;5.436;2023-04-01T07:17:58;99595.25;;;9.75;100.00
71970;BME280;59838;52.152;5.436;2023-04-01T07:20:30;99601.25;;;9.75;100.00
71970;BME280;59838;52.152;5.436;2023-04-01T07:23:00;99604.22;;;9.79;100.00
71970;BME280;59838;52.152;5.436;2023-04-01T07:25:34;99605.81;;;9.80;100.00
71970;BME280;59838;52.152;5.436;2023-04-01T07:28:11;99610.78;;;9.81;100.00
71970;BME280;59838;52.152;5.436;2023-04-01T07:33:21;99619.19;;;9.83;100.00
71970;BME280;59838;52.152;5.436;2023-04-01T07:36:03;99624.38;;;9.83;100.00
71970;BME280;59838;52.152;5.436;2023-04-01T07:41:23;99631.53;;;9.88;100.00
71970;BME280;59838;52.152;5.436;2023-04-01T07:44:02;99636.72;;;9.88;100.00
71970;BME280;59838;52.152;5.436;2023-04-01T07:49:15;99636.94;;;9.86;100.00
71970;BME280;59838;52.152;5.436;2023-04-01T07:51:59;99647.31;;;9.86;100.00
71970;BME280;59838;52.152;5.436;2023-04-01T07:54:42;99645.88;;;9.91;100.00
71970;BME280;59838;52.152;5.436;2023-04-01T07:57:19;99657.03;;;9.91;100.00
71970;BME280;59838;52.152;5.436;2023-04-01T08:00:02;99666.00;;;9.95;100.00
71970;BME280;59838;52.152;5.436;2023-04-01T08:02:57;99663.41;;;9.95;100.00
71970;BME280;59838;52.152;5.436;2023-04-01T08:05:39;99668.41;;;9.97;100.00
71970;BME280;59838;52.152;5.436;2023-04-01T08:10:46;99680.16;;;9.99;100.00
71970;BME280;59838;52.152;5.436;2023-04-01T08:21:25;99694.94;;;9.99;100.00
71970;BME280;59838;52.152;5.436;2023-04-01T08:23:58;99694.34;;;9.97;100.00
71970;BME280;59838;52.152;5.436;2023-04-01T08:26:30;99699.75;;;9.95;100.00
71970;BME280;59838;52.152;5.436;2023-04-01T08:29:08;99714.53;;;9.95;100.00
71970;BME280;59838;52.152;5.436;2023-04-01T08:31:55;99718.47;;;9.97;100.00
71970;BME280;59838;52.152;5.436;2023-04-01T08:34:26;99725.28;;;9.98;100.00
71970;BME280;59838;52.152;5.436;2023-04-01T08:37:00;99723.25;;;10.00;100.00
71970;BME280;59838;52.152;5.436;2023-04-01T08:39:36;99731.22;;;10.05;100.00
71970;BME280;59838;52.152;5.436;2023-04-01T08:45:07;99731.19;;;10.12;100.00
71970;BME280;59838;52.152;5.436;2023-04-01T08:56:26;99751.13;;;10.18;100.00
71970;BME280;59838;52.152;5.436;2023-04-01T08:59:21;99754.09;;;10.29;100.00
71970;BME280;59838;52.152;5.436;2023-04-01T09:08:21;99760.63;;;10.45;100.00
71970;BME280;59838;52.152;5.436;2023-04-01T09:28:08;99784.28;;;10.68;100.00
71970;BME280;59838;52.152;5.436;2023-04-01T09:36:16;99796.53;;;10.93;100.00
71970;BME280;59838;52.152;5.436;2023-04-01T09:38:56;99797.06;;;11.02;100.00
71970;BME280;59838;52.152;5.436;2023-04-01T09:41:32;99804.00;;;11.08;100.00
71970;BME280;59838;52.152;5.436;2023-04-01T09:44:13;99808.59;;;11.12;100.00
71970;BME280;59838;52.152;5.436;2023-04-01T09:57:52;99819.84;;;11.57;100.00
71970;BME280;59838;52.152;5.436;2023-04-01T10:06:11;99825.84;;;12.19;100.00
71970;BME280;59838;52.152;5.436;2023-04-01T10:14:45;99829.47;;;12.55;100.00
71970;BME280;59838;52.152;5.436;2023-04-01T10:18:09;99837.28;;;12.55;100.00
71970;BME280;59838;52.152;5.436;2023-04-01T10:20:44;99836.91;;;12.52;100.00
71970;BME280;59838;52.152;5.436;2023-04-01T10:26:37;99849.00;;;12.28;100.00
71970;BME280;59838;52.152;5.436;2023-04-01T10:29:34;99848.56;;;12.12;100.00
71970;BME280;59838;52.152;5.436;2023-04-01T10:34:59;99850.28;;;12.00;100.00
71970;BME280;59838;52.152;5.436;2023-04-01T10:40:57;99856.19;;;11.88;100.00
71970;BME280;59838;52.152;5.436;2023-04-01T10:53:06;99865.84;;;12.43;100.00
71970;BME280;59838;52.152;5.436;2023-04-01T11:01:34;99871.56;;;12.34;100.00
71970;BME280;59838;52.152;5.436;2023-04-01T11:07:08;99885.59;;;12.14;100.00
71970;BME280;59838;52.152;5.436;2023-04-01T11:15:31;99893.66;;;11.87;100.00
71970;BME280;59838;52.152;5.436;2023-04-01T11:18:24;99897.03;;;11.88;100.00
71970;BME280;59838;52.152;5.436;2023-04-01T11:27:03;99908.13;;;11.77;100.00
71970;BME280;59838;52.152;5.436;2023-04-01T11:35:36;99924.94;;;11.81;100.00
71970;BME280;59838;52.152;5.436;2023-04-01T11:38:26;99930.72;;;11.83;100.00
71970;BME280;59838;52.152;5.436;2023-04-01T11:43:59;99930.06;;;11.87;100.00
71970;BME280;59838;52.152;5.436;2023-04-01T11:49:25;99941.81;;;11.97;100.00
71970;BME280;59838;52.152;5.436;2023-04-01T11:57:52;99949.63;;;11.71;100.00
71970;BME280;59838;52.152;5.436;2023-04-01T12:06:06;99969.94;;;12.13;100.00
71970;BME280;59838;52.152;5.436;2023-04-01T12:08:52;99966.63;;;12.24;100.00
71970;BME280;59838;52.152;5.436;2023-04-01T12:11:29;99968.69;;;12.16;100.00
71970;BME280;59838;52.152;5.436;2023-04-01T12:14:14;99972.53;;;12.13;100.00
71970;BME280;59838;52.152;5.436;2023-04-01T12:25:17;99985.16;;;12.10;100.00
71970;BME280;59838;52.152;5.436;2023-04-01T12:27:57;99992.19;;;12.09;100.00
71970;BME280;59838;52.152;5.436;2023-04-01T12:30:50;99997.63;;;12.07;100.00
71970;BME280;59838;52.152;5.436;2023-04-01T12:33:51;99991.63;;;12.07;100.00
71970;BME280;59838;52.152;5.436;2023-04-01T12:36:23;99996.78;;;12.14;100.00
71970;BME280;59838;52.152;5.436;2023-04-01T12:39:13;100004.03;;;12.30;100.00
71970;BME280;59838;52.152;5.436;2023-04-01T12:47:38;100010.94;;;12.43;100.00
71970;BME280;59838;52.152;5.436;2023-04-01T12:55:40;100020.16;;;12.46;100.00
71970;BME280;59838;52.152;5.436;2023-04-01T13:01:25;100021.50;;;12.48;100.00
71970;BME280;59838;52.152;5.436;2023-04-01T13:10:01;100033.41;;;12.37;100.00
71970;BME280;59838;52.152;5.436;2023-04-01T13:15:12;100039.59;;;12.18;100.00
71970;BME280;59838;52.152;5.436;2023-04-01T13:20:40;100053.78;;;12.22;100.00
71970;BME280;59838;52.152;5.436;2023-04-01T13:28:58;100062.59;;;11.89;100.00
71970;BME280;59838;52.152;5.436;2023-04-01T13:31:44;100065.06;;;11.77;100.00
71970;BME280;59838;52.152;5.436;2023-04-01T13:37:19;100067.50;;;11.72;100.00
71970;BME280;59838;52.152;5.436;2023-04-01T13:40:02;100073.94;;;11.69;100.00
71970;BME280;59838;52.152;5.436;2023-04-01T13:42:40;100072.91;;;11.70;100.00
71970;BME280;59838;52.152;5.436;2023-04-01T13:45:19;100077.94;;;11.65;100.00
71970;BME280;59838;52.152;5.436;2023-04-01T13:56:45;100079.81;;;11.45;100.00
71970;BME280;59838;52.152;5.436;2023-04-01T13:59:57;100100.09;;;11.29;100.00
71970;BME280;59838;52.152;5.436;2023-04-01T14:11:33;100126.16;;;10.56;100.00
71970;BME280;59838;52.152;5.436;2023-04-01T14:14:04;100123.78;;;10.48;100.00
71970;BME280;59838;52.152;5.436;2023-04-01T14:16:54;100136.56;;;10.42;100.00
71970;BME280;59838;52.152;5.436;2023-04-01T14:35:33;100164.03;;;10.23;100.00
71970;BME280;59838;52.152;5.436;2023-04-01T14:38:29;100167.84;;;10.21;100.00
71970;BME280;59838;52.152;5.436;2023-04-01T14:41:28;100174.59;;;10.15;100.00
71970;BME280;59838;52.152;5.436;2023-04-01T14:44:27;100180.19;;;10.12;100.00
71970;BME280;59838;52.152;5.436;2023-04-01T14:49:35;100187.00;;;10.13;100.00
71970;BME280;59838;52.152;5.436;2023-04-01T14:52:33;100196.59;;;10.13;100.00
71970;BME280;59838;52.152;5.436;2023-04-01T14:58:20;100217.34;;;10.13;100.00
71970;BME280;59838;52.152;5.436;2023-04-01T15:01:17;100216.34;;;10.14;100.00
71970;BME280;59838;52.152;5.436;2023-04-01T15:04:30;100225.91;;;10.13;100.00
71970;BME280;59838;52.152;5.436;2023-04-01T15:10:17;100231.91;;;10.14;100.00
71970;BME280;59838;52.152;5.436;2023-04-01T15:13:17;100239.50;;;10.15;100.00
71970;BME280;59838;52.152;5.436;2023-04-01T15:16:19;100245.91;;;10.13;100.00
71970;BME280;59838;52.152;5.436;2023-04-01T15:21:50;100252.50;;;10.22;100.00
71970;BME280;59838;52.152;5.436;2023-04-01T15:24:58;100258.09;;;10.19;100.00
71970;BME280;59838;52.152;5.436;2023-04-01T15:33:45;100282.25;;;10.19;100.00
71970;BME280;59838;52.152;5.436;2023-04-01T15:36:25;100277.84;;;10.13;100.00
71970;BME280;59838;52.152;5.436;2023-04-01T15:46:57;100304.16;;;10.10;100.00
71970;BME280;59838;52.152;5.436;2023-04-01T15:49:41;100319.16;;;10.08;100.00
71970;BME280;59838;52.152;5.436;2023-04-01T15:52:42;100318.28;;;10.01;100.00
71970;BME280;59838;52.152;5.436;2023-04-01T15:55:17;100330.63;;;9.92;100.00
71970;BME280;59838;52.152;5.436;2023-04-01T16:03:38;100335.50;;;9.74;100.00
71970;BME280;59838;52.152;5.436;2023-04-01T16:17:32;100369.94;;;9.61;100.00
71970;BME280;59838;52.152;5.436;2023-04-01T16:20:14;100371.09;;;9.58;100.00
71970;BME280;59838;52.152;5.436;2023-04-01T16:23:02;100384.59;;;9.54;100.00
71970;BME280;59838;52.152;5.436;2023-04-01T16:25:39;100392.34;;;9.47;100.00
71970;BME280;59838;52.152;5.436;2023-04-01T16:28:31;100391.50;;;9.40;100.00
71970;BME280;59838;52.152;5.436;2023-04-01T16:31:08;100402.22;;;9.37;100.00
71970;BME280;59838;52.152;5.436;2023-04-01T16:44:48;100431.94;;;9.19;100.00
71970;BME280;59838;52.152;5.436;2023-04-01T16:47:20;100428.38;;;9.20;100.00
71970;BME280;59838;52.152;5.436;2023-04-01T16:49:56;100441.53;;;9.19;100.00
71970;BME280;59838;52.152;5.436;2023-04-01T16:53:09;100441.25;;;9.13;100.00
71970;BME280;59838;52.152;5.436;2023-04-01T16:58:21;100458.44;;;9.00;100.00
71970;BME280;59838;52.152;5.436;2023-04-01T17:00:53;100464.34;;;8.93;100.00
71970;BME280;59838;52.152;5.436;2023-04-01T17:03:27;100470.22;;;8.87;100.00
71970;BME280;59838;52.152;5.436;2023-04-01T17:11:52;100493.91;;;8.84;100.00
71970;BME280;59838;52.152;5.436;2023-04-01T17:14:28;100511.25;;;8.84;100.00
71970;BME280;59838;52.152;5.436;2023-04-01T17:17:01;100514.81;;;8.83;100.00
71970;BME280;59838;52.152;5.436;2023-04-01T17:19:45;100515.81;;;8.82;100.00
71970;BME280;59838;52.152;5.436;2023-04-01T17:25:02;100519.53;;;8.79;100.00
71970;BME280;59838;52.152;5.436;2023-04-01T17:28:02;100537.50;;;8.81;100.00
71970;BME280;59838;52.152;5.436;2023-04-01T17:42:52;100563.84;;;8.69;100.00
71970;BME280;59838;52.152;5.436;2023-04-01T17:48:38;100577.13;;;8.66;100.00
71970;BME280;59838;52.152;5.436;2023-04-01T17:51:29;100585.06;;;8.65;100.00
71970;BME280;59838;52.152;5.436;2023-04-01T17:59:38;100611.88;;;8.57;100.00
71970;BME280;59838;52.152;5.436;2023-04-01T18:05:22;100626.31;;;8.51;100.00
71970;BME280;59838;52.152;5.436;2023-04-01T18:10:31;100634.06;;;8.51;100.00
71970;BME280;59838;52.152;5.436;2023-04-01T18:13:29;100636.03;;;8.49;100.00
71970;BME280;59838;52.152;5.436;2023-04-01T18:21:25;100664.38;;;8.42;100.00
71970;BME280;59838;52.152;5.436;2023-04-01T18:24:02;100657.91;;;8.38;100.00
71970;BME280;59838;52.152;5.436;2023-04-01T18:26:36;100674.59;;;8.36;100.00
71970;BME280;59838;52.152;5.436;2023-04-01T18:29:17;100670.56;;;8.33;100.00
71970;BME280;59838;52.152;5.436;2023-04-01T18:34:51;100694.03;;;8.32;100.00
71970;BME280;59838;52.152;5.436;2023-04-01T18:37:37;100696.00;;;8.30;100.00
71970;BME280;59838;52.152;5.436;2023-04-01T18:40:24;100706.53;;;8.28;100.00
71970;BME280;59838;52.152;5.436;2023-04-01T18:43:11;100711.06;;;8.26;100.00
71970;BME280;59838;52.152;5.436;2023-04-01T18:46:00;100724.19;;;8.24;100.00
71970;BME280;59838;52.152;5.436;2023-04-01T18:51:26;100732.78;;;8.17;100.00
71970;BME280;59838;52.152;5.436;2023-04-01T18:54:06;100742.34;;;8.16;100.00
71970;BME280;59838;52.152;5.436;2023-04-01T18:56:38;100752.69;;;8.16;100.00
71970;BME280;59838;52.152;5.436;2023-04-01T19:01:50;100764.97;;;8.14;100.00
71970;BME280;59838;52.152;5.436;2023-04-01T19:04:41;100770.97;;;8.15;100.00
71970;BME280;59838;52.152;5.436;2023-04-01T19:16:21;100787.44;;;8.14;100.00
71970;BME280;59838;52.152;5.436;2023-04-01T19:21:39;100796.03;;;8.06;100.00
71970;BME280;59838;52.152;5.436;2023-04-01T19:27:26;100814.00;;;7.99;100.00
71970;BME280;59838;52.152;5.436;2023-04-01T19:33:32;100833.41;;;7.95;100.00
71970;BME280;59838;52.152;5.436;2023-04-01T19:36:10;100835.53;;;7.92;100.00
71970;BME280;59838;52.152;5.436;2023-04-01T19:38:40;100841.03;;;7.88;100.00
71970;BME280;59838;52.152;5.436;2023-04-01T19:46:53;100857.69;;;7.86;100.00
71970;BME280;59838;52.152;5.436;2023-04-01T19:54:35;100867.22;;;7.77;100.00
71970;BME280;59838;52.152;5.436;2023-04-01T19:57:16;100887.91;;;7.69;100.00
71970;BME280;59838;52.152;5.436;2023-04-01T20:02:42;100890.66;;;7.51;100.00
71970;BME280;59838;52.152;5.436;2023-04-01T20:08:00;100907.81;;;7.44;100.00
71970;BME280;59838;52.152;5.436;2023-04-01T20:10:41;100915.72;;;7.42;100.00
71970;BME280;59838;52.152;5.436;2023-04-01T20:13:28;100911.50;;;7.41;100.00
71970;BME280;59838;52.152;5.436;2023-04-01T20:16:04;100933.81;;;7.42;100.00